Time;durP1;ratioP1;P1;durP2;ratioP2;P2;SDS_P1;SDS_P2;PMS_P1;PMS_P2;Temp;Humidity;BMP_temperature;BMP_pressure;BME280_temperature;BME280_humidity;BME280_pressure;Samples;Min_cycle;Max_cycle;Signal;HPM_P1;HPM_P2
2020/12/05 00:01:40;;;;;;;3.95;2.65;;;4.70;75.90;;;;;;5107790;28;20019;-89
2020/12/05 00:04:07;;;;;;;4.15;2.63;;;4.80;75.90;;;;;;5084230;28;20520;-90
2020/12/05 00:06:35;;;;;;;5.13;2.92;;;4.80;75.90;;;;;;5097993;28;20394;-89
2020/12/05 00:09:01;;;;;;;3.40;2.42;;;4.80;76.00;;;;;;5098080;28;20588;-89
2020/12/05 00:11:28;;;;;;;3.63;2.35;;;4.80;76.10;;;;;;5097884;28;20052;-90
2020/12/05 00:13:54;;;;;;;3.60;2.33;;;4.60;76.20;;;;;;5098356;28;20364;-90
2020/12/05 00:16:20;;;;;;;2.92;2.05;;;4.70;76.30;;;;;;5097995;28;20353;-90
2020/12/05 00:18:54;;;;;;;2.38;1.77;;;4.80;76.30;;;;;;5098174;28;20354;-90
2020/12/05 00:21:24;;;;;;;3.90;2.00;;;5.00;76.30;;;;;;5096401;28;20427;-90
2020/12/05 00:26:36;;;;;;;2.63;1.90;;;4.90;76.10;;;;;;5114126;22;20507;-90
2020/12/05 00:29:02;;;;;;;3.60;1.80;;;4.90;76.20;;;;;;5097748;28;20460;-89
2020/12/05 00:31:31;;;;;;;2.67;1.80;;;5.00;76.30;;;;;;5097534;28;20449;-89
2020/12/05 00:34:00;;;;;;;2.60;2.00;;;5.00;76.30;;;;;;5095657;28;20469;-90
2020/12/05 00:36:43;;;;;;;4.30;2.30;;;5.00;76.20;;;;;;5059392;28;20477;-87
2020/12/05 00:42:31;;;;;;;3.67;1.75;;;5.00;76.50;;;;;;5039010;28;20117;-90
2020/12/05 00:44:57;;;;;;;1.90;1.63;;;5.00;76.30;;;;;;5042734;28;20534;-89
2020/12/05 00:47:33;;;;;;;;;;;;;;;;;;;;;
2020/12/05 00:50:00;;;;;;;3.28;1.92;;;5.10;76.40;;;;;;5069615;28;20035;-89
2020/12/05 00:52:33;;;;;;;1.88;1.67;;;5.10;76.40;;;;;;5059315;28;20457;-89
2020/12/05 00:54:59;;;;;;;1.52;1.40;;;5.20;76.40;;;;;;5077172;28;20542;-89
2020/12/05 01:00:48;;;;;;;1.85;1.40;;;5.20;76.40;;;;;;5077582;28;20023;-88
2020/12/05 01:06:36;;;;;;;1.85;1.35;;;5.10;76.40;;;;;;5077445;28;20424;-89
2020/12/05 01:12:27;;;;;;;2.35;1.65;;;5.10;76.50;;;;;;5077077;28;20039;-89
2020/12/05 01:18:21;;;;;;;2.25;1.60;;;5.10;76.40;;;;;;5086424;28;20074;-89
2020/12/05 01:20:50;;;;;;;2.58;1.55;;;5.00;76.40;;;;;;5076918;28;20401;-89
2020/12/05 01:26:48;;;;;;;;;;;;;;;;;;;;;
2020/12/05 01:32:36;;;;;;;2.80;1.60;;;4.80;76.70;;;;;;5045038;28;20027;-89
2020/12/05 01:35:12;;;;;;;2.40;1.67;;;4.80;76.80;;;;;;5076438;28;20429;-89
2020/12/05 01:37:38;;;;;;;2.30;1.67;;;4.70;77.00;;;;;;5076577;28;20374;-88
2020/12/05 01:40:04;;;;;;;2.30;1.63;;;4.80;77.70;;;;;;5075760;28;20483;-89
2020/12/05 01:42:31;;;;;;;2.75;1.95;;;4.80;77.20;;;;;;5075869;28;20462;-89
2020/12/05 01:44:57;;;;;;;2.13;1.75;;;4.60;77.10;;;;;;5075522;28;20404;-90
2020/12/05 01:53:37;;;;;;;2.17;1.80;;;4.60;77.10;;;;;;5076314;28;20556;-89
2020/12/05 01:59:25;;;;;;;2.00;1.80;;;4.60;77.20;;;;;;5078847;28;20472;-88
2020/12/05 02:05:27;;;;;;;2.00;1.77;;;4.60;77.20;;;;;;5094561;28;20037;-87
2020/12/05 02:08:06;;;;;;;2.45;1.70;;;4.60;77.70;;;;;;5094727;28;20474;-88
2020/12/05 02:10:40;;;;;;;2.50;1.80;;;4.50;77.00;;;;;;5093293;28;20016;-87
2020/12/05 02:13:41;;;;;;;2.05;1.73;;;4.60;77.10;;;;;;5080980;28;20058;-87
2020/12/05 02:16:08;;;;;;;2.03;1.77;;;4.60;77.00;;;;;;5071954;28;20040;-87
2020/12/05 02:18:38;;;;;;;1.80;1.65;;;4.60;77.00;;;;;;5095827;28;20017;-88
2020/12/05 02:21:05;;;;;;;2.28;1.65;;;4.60;76.90;;;;;;5081986;28;20005;-87
2020/12/05 02:23:37;;;;;;;2.10;1.80;;;4.60;76.90;;;;;;5080633;28;20028;-87
2020/12/05 02:26:09;;;;;;;2.63;1.90;;;4.70;76.90;;;;;;5079770;28;20029;-88
2020/12/05 02:28:38;;;;;;;2.28;1.75;;;4.70;76.90;;;;;;5079596;28;20032;-88
2020/12/05 02:31:05;;;;;;;2.72;2.03;;;4.70;77.00;;;;;;5092497;28;20473;-88
2020/12/05 02:33:31;;;;;;;2.00;1.80;;;4.60;77.00;;;;;;5075583;28;20028;-88
2020/12/05 02:35:57;;;;;;;2.38;1.75;;;4.60;77.20;;;;;;5078419;28;20004;-89
2020/12/05 02:38:38;;;;;;;3.15;1.88;;;4.60;77.30;;;;;;5096792;28;20025;-89
2020/12/05 02:41:07;;;;;;;2.33;1.67;;;4.70;77.40;;;;;;5095257;28;20041;-89
2020/12/05 02:47:00;;;;;;;4.30;2.08;;;4.70;77.20;;;;;;5078220;28;20047;-89
2020/12/05 02:49:27;;;;;;;2.53;1.70;;;4.60;77.20;;;;;;5075744;28;20473;-88
2020/12/05 02:51:53;;;;;;;2.95;2.08;;;4.60;77.30;;;;;;5058470;28;20531;-90
2020/12/05 02:54:20;;;;;;;3.00;1.85;;;4.70;77.20;;;;;;5076623;28;20043;-89
2020/12/05 02:56:47;;;;;;;3.22;2.13;;;4.70;77.20;;;;;;5077111;28;20366;-90
2020/12/05 02:59:14;;;;;;;2.88;2.00;;;4.70;77.20;;;;;;5075277;28;20450;-90
2020/12/05 03:01:40;;;;;;;2.22;1.77;;;4.70;77.30;;;;;;5058452;28;20029;-90
2020/12/05 03:04:07;;;;;;;2.47;1.90;;;4.70;77.30;;;;;;5059797;28;20031;-89
2020/12/05 03:06:33;;;;;;;2.53;1.83;;;4.70;77.10;;;;;;5082476;28;20020;-90
2020/12/05 03:09:00;;;;;;;3.05;2.00;;;4.80;77.10;;;;;;5084480;28;20043;-89
2020/12/05 03:11:27;;;;;;;2.72;1.95;;;4.80;77.10;;;;;;5078779;28;20020;-89
2020/12/05 03:13:58;;;;;;;3.33;2.00;;;4.70;77.00;;;;;;5075957;28;20401;-89
2020/12/05 03:16:25;;;;;;;2.63;2.10;;;4.70;77.20;;;;;;5076127;28;20005;-90
2020/12/05 03:18:52;;;;;;;2.88;1.95;;;4.70;77.30;;;;;;5075339;28;20343;-90
2020/12/05 03:21:17;;;;;;;2.25;1.77;;;4.70;77.30;;;;;;5075486;28;20032;-91
2020/12/05 03:23:45;;;;;;;3.70;2.00;;;4.70;77.40;;;;;;5075252;28;20029;-90
2020/12/05 03:26:14;;;;;;;2.20;2.00;;;4.70;77.20;;;;;;5074966;28;20476;-90
2020/12/05 03:28:45;;;;;;;2.70;2.28;;;4.80;77.30;;;;;;5077044;28;20031;-90
2020/12/05 03:31:28;;;;;;;4.28;2.03;;;4.70;77.30;;;;;;5058326;28;20551;-90
2020/12/05 03:33:55;;;;;;;3.13;2.00;;;4.70;77.40;;;;;;5074726;28;20470;-90
2020/12/05 03:36:23;;;;;;;2.83;1.90;;;4.70;77.40;;;;;;5074939;28;20514;-90
2020/12/05 03:42:13;;;;;;;2.40;1.80;;;4.70;77.50;;;;;;5079134;28;20027;-88
2020/12/05 03:51:50;;;;;;;1.73;1.58;;;4.60;77.60;;;;;;4987875;28;20040;-90
2020/12/05 03:54:26;;;;;;;;;;;;;;;;;;;;;
2020/12/05 04:00:14;;;;;;;2.70;1.90;;;4.60;77.50;;;;;;5028077;28;20055;-90
2020/12/05 04:02:40;;;;;;;2.85;2.10;;;4.80;77.50;;;;;;5074125;28;20457;-89
2020/12/05 04:05:09;;;;;;;2.92;1.90;;;4.60;77.40;;;;;;5073909;28;20480;-90
2020/12/05 04:07:35;;;;;;;3.85;2.00;;;4.50;77.60;;;;;;5056295;28;20484;-90
2020/12/05 04:10:01;;;;;;;2.90;2.00;;;4.60;77.70;;;;;;5073818;28;20024;-90
2020/12/05 04:12:30;;;;;;;2.53;1.67;;;4.70;77.70;;;;;;5056323;28;20021;-90
2020/12/05 04:14:56;;;;;;;2.97;1.88;;;4.60;77.50;;;;;;5073722;28;20419;-90
2020/12/05 04:17:24;;;;;;;2.92;1.90;;;4.50;77.50;;;;;;5073926;28;20531;-91
2020/12/05 04:19:50;;;;;;;2.40;1.98;;;4.50;77.70;;;;;;5056235;28;20539;-89
2020/12/05 04:22:16;;;;;;;3.00;1.90;;;4.50;77.70;;;;;;5058323;28;20021;-90
2020/12/05 04:24:43;;;;;;;2.20;2.00;;;4.50;77.70;;;;;;5077470;28;20505;-90
2020/12/05 04:27:10;;;;;;;2.33;1.85;;;4.50;77.70;;;;;;5077483;28;20531;-90
2020/12/05 04:29:36;;;;;;;2.35;1.80;;;4.40;77.70;;;;;;5075958;28;20366;-90
2020/12/05 04:32:15;;;;;;;3.53;2.00;;;4.40;77.90;;;;;;5059840;28;20473;-90
2020/12/05 04:34:42;;;;;;;2.85;1.95;;;4.50;78.00;;;;;;5077375;28;20038;-90
2020/12/05 04:37:08;;;;;;;2.95;2.15;;;4.60;77.90;;;;;;5077301;28;20488;-89
2020/12/05 04:43:02;;;;;;;3.15;2.17;;;4.50;77.70;;;;;;5077447;28;20043;-93
2020/12/05 04:45:32;;;;;;;4.07;2.20;;;4.40;77.50;;;;;;5077312;28;20354;-90
2020/12/05 04:51:21;;;;;;;2.50;2.17;;;4.30;78.00;;;;;;5077228;28;20023;-91
2020/12/05 04:53:48;;;;;;;3.05;2.20;;;4.30;78.20;;;;;;5059554;28;20455;-88
2020/12/05 04:56:16;;;;;;;2.95;2.17;;;4.10;78.30;;;;;;5077068;28;20450;-90
2020/12/05 04:58:55;;;;;;;2.75;2.15;;;4.20;78.40;;;;;;5077183;28;20477;-89
2020/12/05 05:01:23;;;;;;;2.50;2.20;;;4.10;78.40;;;;;;5077072;28;20492;-95
2020/12/05 05:03:54;;;;;;;4.10;2.10;;;4.10;78.40;;;;;;5075922;28;20055;-92
2020/12/05 05:06:24;;;;;;;2.97;2.03;;;4.20;78.50;;;;;;5077316;28;20450;-91
2020/12/05 05:08:51;;;;;;;2.55;2.15;;;4.20;78.40;;;;;;5077115;28;20048;-91
2020/12/05 05:11:19;;;;;;;3.30;2.30;;;4.20;78.20;;;;;;5077051;28;20401;-92
2020/12/05 05:14:13;;;;;;;2.75;2.22;;;4.30;78.10;;;;;;5058947;28;20013;-92
2020/12/05 05:16:39;;;;;;;4.43;2.30;;;4.20;78.20;;;;;;5059108;28;20478;-92
2020/12/05 05:19:22;;;;;;;3.42;2.30;;;4.20;78.20;;;;;;5059155;28;20465;-92
2020/12/05 05:21:49;;;;;;;3.17;1.98;;;4.20;78.20;;;;;;5075646;28;20021;-92
2020/12/05 05:24:20;;;;;;;2.78;2.40;;;4.20;78.10;;;;;;5076110;28;20048;-92
2020/12/05 05:27:06;;;;;;;3.40;2.28;;;4.40;78.10;;;;;;5076186;28;20416;-93
2020/12/05 05:29:40;;;;;;;3.78;2.40;;;4.20;78.10;;;;;;5076721;28;20366;-92
2020/12/05 05:32:13;;;;;;;2.90;2.40;;;4.20;78.10;;;;;;5059102;28;20482;-92
2020/12/05 05:34:39;;;;;;;;;;;4.20;78.10;;;;;;5076430;28;20457;-93
2020/12/05 05:37:16;;;;;;;2.78;1.98;;;4.30;78.00;;;;;;5076471;28;19954;-92
2020/12/05 05:39:45;;;;;;;3.55;2.55;;;4.20;78.00;;;;;;5076322;28;20412;-93
2020/12/05 05:42:20;;;;;;;6.32;3.45;;;4.20;78.00;;;;;;5076403;28;20485;-92
2020/12/05 05:44:49;;;;;;;5.60;3.70;;;4.30;78.10;;;;;;5057881;28;20585;-91
2020/12/05 05:47:36;;;;;;;;;;;;;;;;;;;;;
2020/12/05 05:50:29;;;;;;;2.80;2.35;;;4.20;78.20;;;;;;5076418;28;20477;-91
2020/12/05 05:53:24;;;;;;;3.17;2.47;;;4.20;78.20;;;;;;5074827;28;20546;-91
2020/12/05 05:56:12;;;;;;;;;;;;;;;;;;;;;
2020/12/05 05:59:00;;;;;;;2.95;2.40;;;4.20;78.40;;;;;;5076150;28;20381;-92
2020/12/05 06:01:28;;;;;;;3.53;2.38;;;4.20;78.50;;;;;;5075509;28;20028;-92
2020/12/05 06:04:05;;;;;;;2.80;2.45;;;4.20;78.60;;;;;;5075624;28;20521;-93
2020/12/05 06:07:05;;;;;;;;;;;;;;;;;;;;;
2020/12/05 06:09:57;;;;;;;2.70;2.35;;;4.20;78.50;;;;;;5072968;28;20030;-92
2020/12/05 06:12:28;;;;;;;3.20;2.63;;;4.10;78.50;;;;;;5037684;28;20385;-93
2020/12/05 06:14:55;;;;;;;3.30;2.28;;;4.20;78.60;;;;;;5076566;28;20462;-93
2020/12/05 06:17:22;;;;;;;3.38;2.47;;;4.10;78.60;;;;;;5065890;28;20504;-93
2020/12/05 06:26:36;;;;;;;3.90;2.67;;;4.00;78.70;;;;;;5095661;28;20032;-90
2020/12/05 06:29:23;;;;;;;3.63;2.55;;;4.00;79.20;;;;;;5098233;28;20047;-91
2020/12/05 06:31:49;;;;;;;2.97;2.50;;;4.00;79.30;;;;;;5071572;28;20013;-91
2020/12/05 06:34:40;;;;;;;3.15;2.50;;;3.90;78.80;;;;;;5084299;28;20530;-91
2020/12/05 06:37:09;;;;;;;3.50;2.70;;;3.90;78.90;;;;;;5095341;28;20016;-91
2020/12/05 06:39:37;;;;;;;3.78;2.92;;;4.00;78.90;;;;;;5079407;28;20020;-91
2020/12/05 06:42:17;;;;;;;3.40;2.75;;;3.80;78.80;;;;;;5068466;28;20484;-90
2020/12/05 06:44:44;;;;;;;4.07;3.28;;;3.80;78.90;;;;;;5075136;28;20124;-90
2020/12/05 06:47:25;;;;;;;4.65;3.00;;;3.80;79.00;;;;;;5077682;28;20040;-92
2020/12/05 06:49:59;;;;;;;4.88;2.63;;;3.80;79.10;;;;;;5058994;28;20450;-90
2020/12/05 06:52:25;;;;;;;3.67;2.67;;;3.80;79.00;;;;;;5059630;28;20366;-91
2020/12/05 06:55:13;;;;;;;3.72;2.70;;;3.80;79.10;;;;;;5076516;28;20032;-91
2020/12/05 06:57:42;;;;;;;3.97;2.65;;;3.80;79.10;;;;;;5075714;28;20347;-92
2020/12/05 07:00:28;;;;;;;3.50;2.53;;;3.90;79.10;;;;;;5058475;28;20492;-92
2020/12/05 07:03:03;;;;;;;4.65;2.90;;;3.80;79.00;;;;;;5076157;28;20453;-91
2020/12/05 07:05:34;;;;;;;3.63;2.35;;;4.00;79.20;;;;;;5075031;28;20466;-92
2020/12/05 07:08:19;;;;;;;4.07;2.38;;;3.90;79.70;;;;;;5074934;28;20415;-87
2020/12/05 07:10:47;;;;;;;5.38;3.08;;;4.00;79.10;;;;;;5075198;28;20442;-89
2020/12/05 07:13:17;;;;;;;4.95;2.85;;;3.90;79.00;;;;;;5074625;28;20472;-89
2020/12/05 07:15:47;;;;;;;5.47;3.40;;;3.90;79.00;;;;;;5078215;28;20485;-89
2020/12/05 07:18:41;;;;;;;5.97;3.67;;;3.90;79.10;;;;;;5075681;28;20012;-89
2020/12/05 07:21:08;;;;;;;5.97;3.97;;;4.00;79.20;;;;;;5021582;28;20351;-89
2020/12/05 07:26:56;;;;;;;4.55;3.28;;;4.00;79.30;;;;;;5075653;28;20059;-90
2020/12/05 07:29:22;;;;;;;3.30;2.35;;;4.20;79.30;;;;;;5064680;28;20201;-90
2020/12/05 07:31:49;;;;;;;5.30;3.10;;;4.10;79.30;;;;;;5058020;28;20020;-90
2020/12/05 07:41:19;;;;;;;9.07;5.57;;;4.10;79.60;;;;;;4987525;28;20029;-89
2020/12/05 07:43:54;;;;;;;5.90;4.50;;;4.10;79.60;;;;;;5074038;28;20491;-89
2020/12/05 07:46:54;;;;;;;7.43;4.05;;;4.10;79.90;;;;;;5075032;28;20044;-90
2020/12/05 07:49:29;;;;;;;5.97;4.35;;;4.20;80.00;;;;;;5019857;28;20539;-90
2020/12/05 07:51:55;;;;;;;4.80;3.63;;;4.10;80.00;;;;;;5074725;28;20473;-90
2020/12/05 07:55:02;;;;;;;3.25;2.47;;;4.20;80.00;;;;;;5056430;28;20480;-91
2020/12/05 07:57:33;;;;;;;4.50;3.03;;;4.30;80.10;;;;;;5047605;28;20525;-89
2020/12/05 08:00:18;;;;;;;5.70;4.00;;;4.30;79.90;;;;;;5077125;28;20461;-89
2020/12/05 08:03:16;;;;;;;5.97;3.83;;;4.30;79.80;;;;;;5078116;28;20425;-89
2020/12/05 08:06:10;;;;;;;7.82;5.30;;;4.40;79.80;;;;;;5078425;28;20469;-89
2020/12/05 08:08:40;;;;;;;5.22;3.33;;;4.40;79.80;;;;;;5076361;28;20470;-89
2020/12/05 08:23:49;;;;;;;5.95;3.80;;;4.40;79.90;;;;;;4996608;28;20053;-90
2020/12/05 08:26:15;;;;;;;7.30;5.30;;;4.40;80.00;;;;;;5056233;28;20028;-89
2020/12/05 08:28:44;;;;;;;6.40;4.57;;;4.40;80.20;;;;;;5073035;28;20037;-89
2020/12/05 08:31:14;;;;;;;6.43;4.93;;;4.40;80.30;;;;;;5057552;28;20496;-89
2020/12/05 08:33:53;;;;;;;7.63;4.70;;;4.40;80.40;;;;;;5057121;28;20531;-89
2020/12/05 08:36:55;;;;;;;5.68;4.32;;;4.40;80.40;;;;;;5058165;28;20462;-89
2020/12/05 08:39:36;;;;;;;;;;;;;;;;;;;;;
2020/12/05 08:45:37;;;;;;;6.40;4.50;;;4.50;80.50;;;;;;5060703;28;20071;-91
2020/12/05 08:48:03;;;;;;;7.65;4.40;;;4.50;80.60;;;;;;5060673;28;20485;-96
2020/12/05 08:50:35;;;;;;;5.20;3.70;;;4.50;80.60;;;;;;5072319;28;20017;-96
2020/12/05 08:53:02;;;;;;;5.85;4.55;;;4.50;80.70;;;;;;5065761;28;20391;-95
2020/12/05 08:55:30;;;;;;;5.60;4.38;;;4.60;80.70;;;;;;5069665;28;20390;-95
2020/12/05 08:58:04;;;;;;;6.63;4.35;;;4.80;80.80;;;;;;5068719;28;20013;-96
2020/12/05 09:03:52;;;;;;;6.78;4.53;;;4.70;80.80;;;;;;5068879;28;20047;-94
2020/12/05 09:06:21;;;;;;;6.50;4.38;;;4.70;80.70;;;;;;5060214;28;20009;-96
2020/12/05 09:08:53;;;;;;;6.75;5.05;;;4.70;80.70;;;;;;5059024;28;20359;-93
2020/12/05 09:14:30;;;;;;;6.55;4.53;;;4.80;80.80;;;;;;5068382;28;20020;-91
2020/12/05 09:16:56;;;;;;;6.80;4.60;;;4.80;80.70;;;;;;5076552;28;20025;-92
2020/12/05 09:19:27;;;;;;;7.88;5.43;;;4.80;80.70;;;;;;5076870;28;20029;-90
2020/12/05 09:22:04;;;;;;;6.80;4.22;;;4.80;80.70;;;;;;5077073;28;20013;-91
2020/12/05 09:24:42;;;;;;;4.32;3.78;;;4.90;80.70;;;;;;5079084;28;20048;-89
2020/12/05 09:27:08;;;;;;;4.13;3.08;;;5.10;80.80;;;;;;5084782;28;20012;-94
2020/12/05 09:29:34;;;;;;;4.20;3.28;;;5.00;80.60;;;;;;5100555;28;20088;-88
2020/12/05 09:32:03;;;;;;;3.20;2.67;;;5.00;80.60;;;;;;5099555;28;20041;-88
2020/12/05 09:34:34;;;;;;;4.05;3.17;;;5.10;80.50;;;;;;5099876;28;20012;-87
2020/12/05 09:37:00;;;;;;;6.57;4.60;;;5.10;80.40;;;;;;5095415;28;20016;-89
2020/12/05 09:39:27;;;;;;;3.97;3.30;;;5.10;80.30;;;;;;5091371;28;20021;-90
2020/12/05 09:41:54;;;;;;;4.72;3.17;;;5.30;80.30;;;;;;5080868;28;20028;-89
2020/12/05 09:44:20;;;;;;;5.72;4.47;;;5.20;80.20;;;;;;5099131;28;20107;-88
2020/12/05 09:46:48;;;;;;;7.72;5.22;;;5.20;80.10;;;;;;5092766;28;20029;-89
2020/12/05 09:49:15;;;;;;;6.68;4.70;;;5.20;80.00;;;;;;5075662;28;20024;-87
2020/12/05 09:51:42;;;;;;;5.90;4.38;;;5.30;80.00;;;;;;5081863;28;20086;-88
2020/12/05 09:54:12;;;;;;;7.10;4.68;;;5.30;79.90;;;;;;5084159;28;20524;-89
2020/12/05 09:56:39;;;;;;;5.57;3.88;;;5.30;79.80;;;;;;5077095;28;20476;-89
2020/12/05 09:59:05;;;;;;;4.85;3.17;;;5.40;79.80;;;;;;5076707;28;20453;-89
2020/12/05 10:01:32;;;;;;;5.93;4.57;;;5.40;79.70;;;;;;5059314;28;20017;-89
2020/12/05 10:03:58;;;;;;;5.97;4.75;;;5.40;79.60;;;;;;5076194;28;20373;-89
2020/12/05 10:06:26;;;;;;;6.75;4.10;;;5.40;79.40;;;;;;5076225;28;20358;-88
2020/12/05 10:08:52;;;;;;;4.63;3.50;;;5.50;79.40;;;;;;5076576;28;20354;-89
2020/12/05 10:11:18;;;;;;;5.82;4.45;;;5.50;79.30;;;;;;5076090;28;20347;-89
2020/12/05 10:13:44;;;;;;;5.60;4.20;;;5.50;79.20;;;;;;5076124;28;20020;-89
2020/12/05 10:16:10;;;;;;;4.35;3.67;;;5.60;79.00;;;;;;5075622;28;20016;-89
2020/12/05 10:18:36;;;;;;;4.55;3.45;;;5.50;78.70;;;;;;5058010;28;20042;-88
2020/12/05 10:21:03;;;;;;;3.15;2.50;;;5.60;78.80;;;;;;5075736;28;20366;-89
2020/12/05 10:23:29;;;;;;;4.05;3.38;;;5.70;78.80;;;;;;5075935;28;20486;-89
2020/12/05 10:25:56;;;;;;;5.18;4.05;;;5.70;78.70;;;;;;5075180;28;20044;-89
2020/12/05 10:28:22;;;;;;;3.83;3.13;;;5.70;78.50;;;;;;5075351;28;20407;-89
2020/12/05 10:30:48;;;;;;;5.20;4.30;;;5.80;78.50;;;;;;5075607;28;20511;-89
2020/12/05 10:46:55;;;;;;;5.88;4.80;;;6.00;77.70;;;;;;5098537;28;20027;-92
2020/12/05 10:56:11;;;;;;;4.28;3.30;;;6.00;76.60;;;;;;5118656;28;20062;-90
2020/12/05 11:01:59;;;;;;;3.40;2.50;;;6.10;76.80;;;;;;5110248;28;20061;-90
2020/12/05 11:07:48;;;;;;;2.85;2.40;;;6.30;76.70;;;;;;5118129;28;20043;-91
2020/12/05 11:10:17;;;;;;;4.40;2.60;;;6.30;76.50;;;;;;5101452;28;20492;-90
2020/12/05 11:12:48;;;;;;;2.60;2.20;;;6.30;76.50;;;;;;5097309;28;20529;-90
2020/12/05 11:15:16;;;;;;;5.03;3.00;;;6.30;76.40;;;;;;5063248;28;20513;-89
2020/12/05 11:17:55;;;;;;;3.92;3.10;;;6.40;76.20;;;;;;5096827;28;20016;-91
2020/12/05 11:20:22;;;;;;;3.40;2.53;;;6.50;75.90;;;;;;5077211;28;20373;-91
2020/12/05 11:22:53;;;;;;;3.88;3.30;;;6.60;75.80;;;;;;5079383;28;20020;-91
2020/12/05 11:25:23;;;;;;;3.75;2.78;;;6.70;75.70;;;;;;5079911;28;20466;-90
2020/12/05 11:31:12;;;;;;;4.03;2.80;;;6.70;75.00;;;;;;5104580;28;20039;-90
2020/12/05 11:33:42;;;;;;;2.05;1.85;;;6.70;74.60;;;;;;5102842;28;20571;-91
2020/12/05 11:39:30;;;;;;;2.13;1.92;;;6.80;74.70;;;;;;5101470;28;20113;-91
2020/12/05 11:41:57;;;;;;;3.35;2.53;;;6.80;74.50;;;;;;5082511;28;20019;-91
2020/12/05 11:44:23;;;;;;;3.13;2.33;;;7.00;74.50;;;;;;5082337;28;20032;-92
2020/12/05 11:46:50;;;;;;;3.85;2.80;;;6.90;74.20;;;;;;5100178;28;20357;-90
2020/12/05 11:49:17;;;;;;;2.45;1.95;;;6.90;73.70;;;;;;5097966;28;20362;-90
2020/12/05 11:51:44;;;;;;;3.13;2.13;;;7.00;73.70;;;;;;5081705;28;20491;-92
2020/12/05 11:54:27;;;;;;;3.03;2.03;;;7.10;73.70;;;;;;5100260;28;20445;-91
2020/12/05 11:56:54;;;;;;;2.90;2.20;;;7.20;73.70;;;;;;5081733;28;20379;-92
2020/12/05 11:59:39;;;;;;;;;;;;;;;;;;;;;
2020/12/05 12:02:06;;;;;;;4.45;3.40;;;7.30;72.70;;;;;;5100017;28;20088;-91
2020/12/05 12:04:32;;;;;;;3.35;2.53;;;7.30;72.00;;;;;;5081616;28;20526;-91
2020/12/05 12:07:09;;;;;;;;;;;;;;;;;;;;;
2020/12/05 12:19:34;;;;;;;3.97;2.90;;;7.50;71.40;;;;;;5017879;28;20033;-91
2020/12/05 12:22:13;;;;;;;;;;;;;;;;;;;;;
2020/12/05 12:28:32;;;;;;;4.10;2.63;;;10.20;65.10;;;;;;5037087;28;20101;-92
2020/12/05 12:37:22;;;;;;;2.47;1.58;;;9.40;65.10;;;;;;5004770;28;20045;-90
2020/12/05 14:32:29;;;;;;;4.45;3.22;;;6.90;70.30;;;;;;4925897;28;20049;-94
2020/12/05 14:35:35;;;;;;;3.08;2.67;;;6.80;70.50;;;;;;5069749;28;20074;-95
2020/12/05 14:38:04;;;;;;;4.80;3.30;;;6.80;70.50;;;;;;5062806;28;20465;-96
2020/12/05 14:41:11;;;;;;;4.55;3.47;;;6.80;70.60;;;;;;5077373;28;20351;-96
2020/12/05 14:43:29;;;;;;;3.20;2.45;;;6.80;70.80;;;;;;5076735;28;20020;-96
2020/12/05 14:45:58;;;;;;;2.13;1.92;;;7.00;71.00;;;;;;5076708;28;20476;-96
2020/12/05 14:48:44;;;;;;;2.20;2.00;;;7.00;71.00;;;;;;5076443;28;20027;-96
2020/12/05 14:51:20;;;;;;;;;;;;;;;;;;;;;
2020/12/05 14:54:06;;;;;;;;;;;;;;;;;;;;;
2020/12/05 15:03:46;;;;;;;3.17;2.05;;;7.20;70.80;;;;;;5016370;28;20039;-91
2020/12/05 15:06:15;;;;;;;2.30;2.08;;;7.30;70.80;;;;;;5084973;28;20017;-90
2020/12/05 15:12:03;;;;;;;3.92;2.70;;;7.20;70.70;;;;;;5091084;28;20067;-89
2020/12/05 15:14:30;;;;;;;5.82;2.85;;;7.30;70.70;;;;;;5098014;28;20013;-90
2020/12/05 15:16:56;;;;;;;3.70;2.58;;;7.20;70.40;;;;;;5098512;28;20012;-90
2020/12/05 15:19:22;;;;;;;4.70;3.30;;;7.10;70.60;;;;;;5085865;28;20085;-89
2020/12/05 15:21:55;;;;;;;3.50;2.75;;;7.10;70.80;;;;;;5089310;28;20025;-89
2020/12/05 15:27:47;;;;;;;4.07;2.17;;;7.00;71.20;;;;;;5072844;28;20120;-92
2020/12/05 15:39:49;;;;;;;6.47;3.45;;;6.90;71.90;;;;;;4966722;28;20065;-91
2020/12/05 15:42:21;;;;;;;5.78;3.70;;;6.80;72.00;;;;;;5070404;28;20369;-91
2020/12/05 15:44:47;;;;;;;4.88;3.05;;;6.90;72.10;;;;;;5086840;28;20032;-90
2020/12/05 15:47:14;;;;;;;3.80;2.63;;;6.90;72.00;;;;;;5088330;28;20024;-90
2020/12/05 15:49:42;;;;;;;2.22;2.03;;;6.90;72.00;;;;;;5091089;28;20025;-91
2020/12/05 15:52:09;;;;;;;3.33;2.50;;;6.90;72.00;;;;;;5077330;28;20535;-91
2020/12/05 15:54:36;;;;;;;3.25;2.05;;;7.00;72.10;;;;;;5076443;28;20083;-91
2020/12/05 15:57:03;;;;;;;3.10;2.13;;;7.10;72.10;;;;;;5075433;28;20362;-91
2020/12/05 15:59:31;;;;;;;4.50;2.72;;;7.00;72.10;;;;;;5075983;28;20013;-91
2020/12/05 16:05:21;;;;;;;4.55;2.15;;;7.00;72.10;;;;;;5074972;28;20048;-90
2020/12/05 16:11:09;;;;;;;3.35;2.38;;;7.00;72.10;;;;;;5074624;28;20373;-89
2020/12/05 16:13:35;;;;;;;3.20;2.42;;;6.90;72.20;;;;;;5073552;28;20450;-86
2020/12/05 16:16:01;;;;;;;2.60;2.10;;;6.90;72.30;;;;;;5074484;28;20572;-89
2020/12/05 16:18:36;;;;;;;2.47;2.20;;;6.80;72.40;;;;;;5078027;28;20442;-90
2020/12/05 16:21:02;;;;;;;4.53;2.90;;;6.80;72.50;;;;;;5076609;28;20477;-88
2020/12/05 16:23:28;;;;;;;3.10;2.03;;;6.80;72.50;;;;;;5077777;28;20354;-87
2020/12/05 16:25:56;;;;;;;3.13;2.28;;;6.70;72.50;;;;;;5076236;28;20496;-88
2020/12/05 16:28:22;;;;;;;4.43;2.63;;;6.70;72.50;;;;;;5076028;28;20538;-86
2020/12/05 16:34:10;;;;;;;4.78;2.60;;;6.70;72.30;;;;;;5082643;28;20039;-88
2020/12/05 16:36:36;;;;;;;2.95;2.10;;;6.60;72.20;;;;;;5076630;28;20020;-89
2020/12/05 16:39:03;;;;;;;3.03;1.83;;;6.60;72.30;;;;;;5079067;28;20466;-88
2020/12/05 16:41:29;;;;;;;3.85;2.53;;;6.50;72.30;;;;;;5097381;28;20024;-87
2020/12/05 16:43:55;;;;;;;3.35;2.50;;;6.50;72.50;;;;;;5098301;28;20449;-88
2020/12/05 16:46:22;;;;;;;4.63;2.60;;;6.40;72.60;;;;;;5098379;28;20096;-87
2020/12/05 16:48:49;;;;;;;4.97;3.28;;;6.40;72.80;;;;;;5098212;28;20488;-88
2020/12/05 16:51:16;;;;;;;5.35;3.33;;;6.40;72.90;;;;;;5098799;28;20023;-88
2020/12/05 16:53:42;;;;;;;5.57;4.00;;;6.30;73.00;;;;;;5102108;28;20008;-87
2020/12/05 16:56:09;;;;;;;3.92;3.10;;;6.20;73.10;;;;;;5089683;28;20038;-88
2020/12/05 16:58:35;;;;;;;6.22;4.00;;;6.10;73.30;;;;;;5087670;28;20049;-87
2020/12/05 17:04:23;;;;;;;7.80;4.38;;;6.10;73.60;;;;;;5120992;28;20031;-88
2020/12/05 17:06:49;;;;;;;6.13;3.58;;;6.10;73.70;;;;;;5102538;28;20016;-90
2020/12/05 17:09:16;;;;;;;5.38;3.58;;;6.00;73.70;;;;;;5120462;28;20071;-89
2020/12/05 17:11:43;;;;;;;5.95;3.53;;;6.10;73.80;;;;;;5109070;28;20365;-88
2020/12/05 17:14:09;;;;;;;5.05;3.20;;;6.00;73.70;;;;;;5114872;28;20024;-88
2020/12/05 17:16:36;;;;;;;4.32;2.92;;;6.00;73.70;;;;;;5097260;22;20047;-86
2020/12/05 17:19:03;;;;;;;4.47;3.30;;;6.00;73.70;;;;;;5075831;28;20520;-86
2020/12/05 17:24:51;;;;;;;4.18;3.20;;;5.90;73.80;;;;;;5075546;28;20048;-87
2020/12/05 17:27:20;;;;;;;4.88;3.30;;;5.80;73.80;;;;;;5075357;28;20471;-86
2020/12/05 17:29:47;;;;;;;5.53;3.15;;;5.80;73.80;;;;;;5074585;28;20469;-85
2020/12/05 17:35:36;;;;;;;6.10;4.65;;;5.70;74.10;;;;;;5075356;28;20042;-85
2020/12/05 17:41:24;;;;;;;4.72;3.42;;;5.50;74.40;;;;;;5074734;28;20116;-85
2020/12/05 17:47:18;;;;;;;5.47;4.15;;;5.40;74.70;;;;;;5075101;28;20055;-85
2020/12/05 17:49:46;;;;;;;7.65;5.68;;;5.30;74.60;;;;;;5074549;28;20568;-85
2020/12/05 17:52:12;;;;;;;5.93;4.40;;;5.20;74.60;;;;;;5074662;28;20481;-86
2020/12/05 17:54:38;;;;;;;6.43;4.85;;;5.20;74.60;;;;;;5056600;28;20461;-85
2020/12/05 17:57:07;;;;;;;7.47;4.63;;;5.20;74.60;;;;;;5074244;28;20440;-85
2020/12/05 17:59:34;;;;;;;8.20;5.82;;;5.20;74.60;;;;;;5074297;28;20469;-85
2020/12/05 18:02:02;;;;;;;7.70;5.38;;;5.20;74.60;;;;;;5074061;28;20016;-85
2020/12/05 18:07:53;;;;;;;6.93;5.03;;;5.20;74.70;;;;;;5075786;28;20063;-87
2020/12/05 18:10:19;;;;;;;7.47;5.07;;;5.20;74.70;;;;;;5076031;28;20016;-86
2020/12/05 18:12:46;;;;;;;9.13;5.18;;;5.20;75.20;;;;;;5074377;28;20464;-86
2020/12/05 18:15:12;;;;;;;8.50;5.53;;;5.10;74.50;;;;;;5074922;28;20370;-85
2020/12/05 18:17:43;;;;;;;7.50;4.30;;;5.10;74.50;;;;;;5074371;28;20434;-86
2020/12/05 18:20:10;;;;;;;5.57;4.38;;;5.10;74.60;;;;;;5056988;28;20024;-86
2020/12/05 18:22:37;;;;;;;8.05;4.82;;;5.10;74.60;;;;;;5074587;28;20454;-86
2020/12/05 18:25:05;;;;;;;9.27;5.68;;;5.00;74.70;;;;;;5074832;28;20474;-85
2020/12/05 18:27:34;;;;;;;13.68;9.55;;;4.90;74.70;;;;;;5074533;28;20517;-85
2020/12/05 18:33:23;;;;;;;8.88;5.78;;;4.90;74.90;;;;;;5074865;28;20120;-85
2020/12/05 18:35:49;;;;;;;5.97;4.20;;;4.90;74.90;;;;;;5075081;28;20024;-85
2020/12/05 18:38:16;;;;;;;6.57;4.70;;;4.90;75.00;;;;;;5075036;28;20012;-85
2020/12/05 18:44:04;;;;;;;7.78;5.63;;;4.80;75.10;;;;;;5075115;28;20052;-86
2020/12/05 18:46:30;;;;;;;9.68;5.75;;;4.80;75.00;;;;;;5075346;28;20467;-87
2020/12/05 18:52:18;;;;;;;7.75;5.72;;;4.80;75.00;;;;;;5075104;28;20040;-88
2020/12/05 18:54:45;;;;;;;9.55;6.63;;;4.80;74.90;;;;;;5075007;28;20021;-86
2020/12/05 19:00:33;;;;;;;7.50;5.00;;;4.70;75.00;;;;;;5075130;28;20495;-87
2020/12/05 19:02:59;;;;;;;7.05;5.68;;;4.70;75.00;;;;;;5057177;28;20051;-86
2020/12/05 19:08:48;;;;;;;7.78;4.90;;;4.80;75.00;;;;;;5075285;28;20051;-87